createdAt,value
2019-05-02T00:01:14.175Z,32.70
2019-05-02T00:03:43.555Z,32.28
2019-05-02T00:06:12.891Z,33.42
2019-05-02T00:08:42.224Z,32.93
2019-05-02T00:11:12.211Z,34.43
2019-05-02T00:13:41.500Z,34.27
2019-05-02T00:16:14.190Z,37.07
2019-05-02T00:18:41.571Z,36.65
2019-05-02T00:21:11.331Z,35.43
2019-05-02T00:23:40.423Z,35.43
2019-05-02T00:26:09.458Z,38.23
2019-05-02T00:28:38.437Z,39.67
2019-05-02T00:31:11.567Z,39.60
2019-05-02T00:33:38.895Z,35.98
2019-05-02T00:36:07.899Z,40.13
2019-05-02T00:38:38.371Z,42.35
2019-05-02T00:41:07.499Z,39.30
2019-05-02T00:43:36.503Z,36.53
2019-05-02T00:46:05.671Z,38.80
2019-05-02T00:48:48.675Z,39.00
2019-05-02T00:51:17.591Z,38.03
2019-05-02T00:53:48.321Z,40.73
2019-05-02T00:56:17.387Z,35.23
2019-05-02T00:58:46.408Z,41.25
2019-05-02T01:01:34.575Z,39.55
2019-05-02T01:04:08.999Z,38.67
2019-05-02T01:06:37.968Z,39.03
2019-05-02T01:09:11.014Z,39.88
2019-05-02T01:11:38.940Z,38.60
2019-05-02T01:14:07.922Z,39.75
2019-05-02T01:16:37.237Z,40.17
2019-05-02T01:19:06.549Z,43.98
2019-05-02T01:21:38.856Z,39.95
2019-05-02T01:24:06.184Z,45.17
2019-05-02T01:26:39.219Z,39.13
2019-05-02T01:29:13.719Z,40.33
2019-05-02T01:32:02.044Z,38.28
2019-05-02T01:34:48.996Z,38.50
2019-05-02T01:37:31.676Z,39.30
2019-05-02T01:40:00.511Z,39.50
2019-05-02T01:42:39.568Z,37.95
2019-05-02T01:45:00.293Z,38.53
2019-05-02T01:47:34.021Z,39.17
2019-05-02T01:49:59.764Z,40.20
2019-05-02T01:52:28.782Z,37.50
2019-05-02T01:54:58.055Z,37.15
2019-05-02T01:57:27.127Z,36.90
2019-05-02T01:59:56.020Z,36.55
2019-05-02T02:02:28.127Z,37.77
2019-05-02T02:04:56.951Z,40.10
2019-05-02T02:07:26.735Z,36.20
2019-05-02T02:09:55.811Z,35.75
2019-05-02T02:12:24.751Z,35.37
2019-05-02T02:14:55.535Z,33.65
2019-05-02T02:17:24.757Z,34.83
2019-05-02T02:19:57.872Z,31.52
2019-05-02T02:22:55.340Z,35.97
2019-05-02T02:25:32.173Z,33.05
2019-05-02T02:28:02.779Z,37.23
2019-05-02T02:30:32.130Z,35.47
2019-05-02T02:33:07.423Z,36.45
2019-05-02T02:35:31.757Z,38.77
2019-05-02T02:38:00.820Z,35.03
2019-05-02T02:40:33.580Z,34.53
2019-05-02T02:43:10.198Z,37.35
2019-05-02T02:45:57.981Z,31.70
2019-05-02T02:48:23.834Z,34.10
2019-05-02T02:50:52.875Z,35.47
2019-05-02T02:53:31.258Z,36.28
2019-05-02T02:56:03.508Z,32.50
2019-05-02T02:58:44.002Z,33.73
2019-05-02T03:01:03.328Z,37.67
2019-05-02T03:03:35.061Z,37.88
2019-05-02T03:06:05.417Z,37.43
2019-05-02T03:08:44.493Z,38.98
2019-05-02T03:11:04.484Z,36.17
2019-05-02T03:14:06.064Z,36.50
2019-05-02T03:16:28.203Z,34.27
2019-05-02T03:18:57.241Z,34.70
2019-05-02T03:21:26.263Z,36.67
2019-05-02T03:24:02.817Z,38.83
2019-05-02T03:26:26.307Z,36.27
2019-05-02T03:28:58.621Z,41.63
2019-05-02T03:31:30.477Z,41.93
2019-05-02T03:34:00.760Z,41.98
2019-05-02T03:36:36.215Z,42.30
2019-05-02T03:39:13.841Z,39.18
2019-05-02T03:41:33.686Z,39.60
2019-05-02T03:44:11.321Z,37.40
2019-05-02T03:46:33.944Z,37.40
2019-05-02T03:49:07.288Z,38.85
2019-05-02T03:51:34.419Z,37.87
2019-05-02T03:54:07.631Z,41.37
2019-05-02T03:56:34.248Z,39.80
2019-05-02T03:59:03.646Z,42.38
2019-05-02T04:01:34.747Z,38.87
2019-05-02T04:04:04.047Z,39.83
2019-05-02T04:06:33.131Z,40.43
2019-05-02T04:09:02.247Z,37.95
2019-05-02T04:11:38.339Z,40.60
2019-05-02T04:14:02.035Z,39.30
2019-05-02T04:16:31.093Z,40.17
2019-05-02T04:19:04.620Z,38.55
2019-05-02T04:21:34.567Z,39.87
2019-05-02T04:24:12.597Z,39.42
2019-05-02T04:26:35.450Z,42.77
2019-05-02T04:29:04.575Z,38.83
2019-05-02T04:31:33.833Z,41.33
2019-05-02T04:34:13.787Z,40.48
2019-05-02T04:36:33.788Z,39.73
2019-05-02T04:39:05.709Z,41.15
2019-05-02T04:41:35.258Z,40.70
2019-05-02T04:44:04.282Z,41.15
2019-05-02T04:46:33.212Z,42.27
2019-05-02T04:49:02.370Z,40.03
2019-05-02T04:51:32.294Z,38.33
2019-05-02T04:54:01.539Z,41.63
2019-05-02T04:56:30.478Z,42.53
2019-05-02T04:59:01.849Z,38.17
2019-05-02T05:01:33.037Z,39.53
2019-05-02T05:04:03.160Z,33.65
2019-05-02T05:06:31.164Z,39.17
2019-05-02T05:09:04.182Z,39.98
2019-05-02T05:11:30.632Z,40.80
2019-05-02T05:14:00.388Z,37.03
2019-05-02T05:16:30.312Z,39.57
2019-05-02T05:19:00.025Z,39.25
2019-05-02T05:21:29.219Z,39.60
2019-05-02T05:24:18.216Z,39.08
2019-05-02T05:26:50.430Z,37.30
2019-05-02T05:29:23.211Z,36.88
2019-05-02T05:31:50.455Z,40.10
2019-05-02T05:34:22.911Z,37.40
2019-05-02T05:36:50.037Z,37.30
2019-05-02T05:39:19.407Z,42.88
2019-05-02T05:41:52.141Z,36.93
2019-05-02T05:44:23.284Z,40.40
2019-05-02T05:46:49.971Z,39.03
2019-05-02T05:49:21.750Z,38.13
2019-05-02T05:51:54.308Z,37.00
2019-05-02T05:54:20.549Z,38.65
2019-05-02T05:56:49.479Z,35.98
2019-05-02T05:59:22.311Z,39.10
2019-05-02T06:01:51.580Z,38.83
2019-05-02T06:04:23.631Z,40.90
2019-05-02T06:06:54.013Z,39.93
2019-05-02T06:09:26.220Z,40.00
2019-05-02T06:11:55.360Z,40.65
2019-05-02T06:14:26.138Z,39.88
2019-05-02T06:16:55.251Z,39.33
2019-05-02T06:19:24.056Z,35.88
2019-05-02T06:21:53.076Z,41.53
2019-05-02T06:24:21.991Z,37.88
2019-05-02T06:26:51.833Z,38.97
2019-05-02T06:29:21.097Z,39.13
2019-05-02T06:31:50.229Z,34.50
2019-05-02T06:34:19.567Z,36.30
2019-05-02T06:36:48.422Z,43.30
2019-05-02T06:39:17.442Z,41.95
2019-05-02T06:41:46.415Z,36.23
2019-05-02T06:44:18.458Z,39.50
2019-05-02T06:46:46.865Z,40.33
2019-05-02T06:49:15.908Z,38.67
2019-05-02T06:51:45.227Z,35.97
2019-05-02T06:54:18.128Z,35.03
2019-05-02T06:56:48.026Z,41.80
2019-05-02T06:59:18.451Z,41.00
2019-05-02T07:01:47.178Z,37.83
2019-05-02T07:04:17.581Z,40.77
2019-05-02T07:06:58.286Z,37.80
2019-05-02T07:09:18.217Z,37.33
2019-05-02T07:11:57.042Z,42.33
2019-05-02T07:14:23.357Z,39.55
2019-05-02T07:16:59.802Z,36.93
2019-05-02T07:19:33.886Z,40.47
2019-05-02T07:22:04.367Z,41.27
2019-05-02T07:24:33.539Z,39.87
2019-05-02T07:27:02.878Z,39.70
2019-05-02T07:29:31.875Z,37.13
2019-05-02T07:32:00.968Z,43.70
2019-05-02T07:34:30.031Z,38.37
2019-05-02T07:36:59.017Z,40.73
2019-05-02T07:39:28.084Z,38.17
2019-05-02T07:42:00.474Z,42.60
2019-05-02T07:44:32.756Z,41.10
2019-05-02T07:47:02.723Z,37.80
2019-05-02T07:49:32.114Z,39.73
2019-05-02T07:52:00.607Z,36.63
2019-05-02T07:54:29.659Z,31.27
2019-05-02T07:56:58.663Z,32.63
2019-05-02T07:59:27.539Z,32.37
2019-05-02T08:01:56.597Z,30.33
2019-05-02T08:04:26.979Z,32.63
2019-05-02T08:06:56.235Z,26.90
2019-05-02T08:09:25.590Z,23.83
2019-05-02T08:11:54.499Z,26.60
2019-05-02T08:14:23.435Z,23.00
2019-05-02T08:17:04.972Z,24.90
2019-05-02T08:19:23.705Z,23.20
2019-05-02T08:21:52.932Z,25.13
2019-05-02T08:24:21.935Z,21.00
2019-05-02T08:27:09.922Z,24.17
2019-05-02T08:29:38.903Z,25.10
2019-05-02T08:32:07.882Z,22.77
2019-05-02T08:34:37.176Z,23.97
2019-05-02T08:37:06.196Z,21.97
2019-05-02T08:39:35.318Z,26.33
2019-05-02T08:42:04.526Z,27.37
2019-05-02T08:44:33.397Z,27.23
2019-05-02T08:47:02.276Z,26.37
2019-05-02T08:49:31.139Z,28.43
2019-05-02T08:52:00.072Z,29.83
2019-05-02T08:54:32.782Z,28.57
2019-05-02T08:57:00.630Z,29.07
2019-05-02T08:59:29.566Z,30.10
2019-05-02T09:01:59.273Z,27.27
2019-05-02T09:04:29.120Z,27.83
2019-05-02T09:07:00.698Z,26.87
2019-05-02T09:09:29.649Z,28.40
2019-05-02T09:12:09.694Z,28.77
2019-05-02T09:14:29.506Z,30.40
2019-05-02T09:17:00.161Z,27.00
2019-05-02T09:19:31.706Z,29.40
2019-05-02T09:21:59.787Z,32.40
2019-05-02T09:24:29.311Z,29.97
2019-05-02T09:26:58.516Z,30.40
2019-05-02T09:29:27.856Z,30.20
2019-05-02T09:31:56.809Z,29.17
2019-05-02T09:34:26.804Z,29.33
2019-05-02T09:36:55.816Z,29.80
2019-05-02T09:39:27.420Z,29.10
2019-05-02T09:41:55.815Z,29.40
2019-05-02T09:44:24.719Z,30.33
2019-05-02T09:46:56.957Z,35.30
2019-05-02T09:49:24.872Z,33.17
2019-05-02T09:51:59.088Z,31.37
2019-05-02T09:54:24.430Z,33.80
2019-05-02T09:56:53.365Z,29.57
2019-05-02T09:59:33.129Z,28.40
2019-05-02T10:02:04.862Z,31.03
2019-05-02T10:04:34.179Z,31.13
2019-05-02T10:07:03.074Z,32.90
2019-05-02T10:09:32.377Z,33.30
2019-05-02T10:12:02.134Z,32.10
2019-05-02T10:14:33.050Z,29.87
2019-05-02T10:17:05.865Z,30.53
2019-05-02T10:19:32.868Z,27.93
2019-05-02T10:22:01.978Z,28.50
2019-05-02T10:24:32.249Z,29.53
2019-05-02T10:27:04.019Z,30.03
2019-05-02T10:29:32.911Z,32.63
2019-05-02T10:32:02.291Z,30.53
2019-05-02T10:34:32.963Z,31.77
2019-05-02T10:37:03.081Z,34.23
2019-05-02T10:39:36.150Z,34.90
2019-05-02T10:42:02.883Z,31.10
2019-05-02T10:44:36.203Z,31.33
2019-05-02T10:47:03.044Z,29.63
2019-05-02T10:49:42.618Z,29.97
2019-05-02T10:52:12.322Z,31.47
2019-05-02T10:54:42.184Z,30.17
2019-05-02T10:57:12.632Z,31.43
2019-05-02T10:59:42.150Z,29.47
2019-05-02T11:02:28.988Z,27.17
2019-05-02T11:05:02.719Z,27.00
2019-05-02T11:07:32.669Z,28.93
2019-05-02T11:10:03.123Z,29.80
2019-05-02T11:12:46.478Z,31.93
2019-05-02T11:15:47.128Z,27.13
2019-05-02T11:18:18.429Z,26.10
2019-05-02T11:20:47.496Z,25.23
2019-05-02T11:23:16.456Z,29.57
2019-05-02T11:25:45.620Z,24.80
2019-05-02T11:28:14.579Z,25.20
2019-05-02T11:30:45.239Z,24.93
2019-05-02T11:33:14.407Z,25.77
2019-05-02T11:35:49.010Z,29.00
2019-05-02T11:38:35.958Z,27.20
2019-05-02T11:40:45.275Z,27.87
2019-05-02T11:43:14.163Z,25.47
2019-05-02T11:45:43.076Z,24.00
2019-05-02T11:48:14.004Z,22.97
2019-05-02T11:50:42.642Z,23.60
2019-05-02T11:53:23.231Z,23.37
2019-05-02T11:55:43.856Z,24.20
2019-05-02T11:58:13.456Z,24.67
2019-05-02T12:00:45.452Z,23.10
2019-05-02T12:03:18.633Z,22.80
2019-05-02T12:05:47.928Z,18.27
2019-05-02T12:08:17.204Z,26.27
2019-05-02T12:10:46.008Z,22.03
2019-05-02T12:13:16.139Z,25.90
2019-05-02T12:15:45.629Z,23.73
2019-05-02T12:18:14.678Z,21.37
2019-05-02T12:20:43.699Z,20.80
2019-05-02T12:23:13.059Z,26.87
2019-05-02T12:25:42.539Z,23.20
2019-05-02T12:28:12.179Z,24.53
2019-05-02T12:30:41.898Z,22.00
2019-05-02T12:33:12.404Z,20.83
2019-05-02T12:35:43.250Z,22.77
2019-05-02T12:38:12.519Z,21.37
2019-05-02T12:40:43.255Z,21.40
2019-05-02T12:43:12.325Z,19.50
2019-05-02T12:45:42.084Z,20.90
2019-05-02T12:48:12.970Z,22.47
2019-05-02T12:50:42.192Z,23.03
2019-05-02T12:53:12.576Z,20.80
2019-05-02T12:55:42.258Z,21.37
2019-05-02T12:58:12.565Z,19.43
2019-05-02T13:00:43.048Z,17.17
2019-05-02T13:03:31.794Z,18.00
2019-05-02T13:06:03.011Z,17.40
2019-05-02T13:08:32.377Z,17.40
2019-05-02T13:11:18.522Z,17.50
2019-05-02T13:13:47.598Z,15.77
2019-05-02T13:16:16.650Z,17.77
2019-05-02T13:18:45.579Z,15.80
2019-05-02T13:21:17.430Z,15.67
2019-05-02T13:23:54.411Z,18.20
2019-05-02T13:26:27.107Z,17.70
2019-05-02T13:28:54.349Z,15.87
2019-05-02T13:31:52.394Z,19.53
2019-05-02T13:34:41.434Z,25.33
2019-05-02T13:37:12.394Z,15.83
2019-05-02T13:39:45.607Z,16.53
2019-05-02T13:42:14.938Z,15.73
2019-05-02T13:44:52.542Z,15.30
2019-05-02T13:47:22.290Z,19.07
2019-05-02T13:49:54.872Z,14.03
2019-05-02T13:52:22.613Z,15.40
2019-05-02T13:54:52.305Z,15.40
2019-05-02T13:57:21.854Z,16.07
2019-05-02T13:59:52.566Z,14.77
2019-05-02T14:02:36.558Z,13.77
2019-05-02T14:05:07.046Z,14.37
2019-05-02T14:07:36.105Z,15.00
2019-05-02T14:10:12.100Z,13.77
2019-05-02T14:12:46.634Z,13.10
2019-05-02T14:15:17.543Z,13.27
2019-05-02T14:17:46.486Z,15.57
2019-05-02T14:20:19.335Z,14.27
2019-05-02T14:22:48.423Z,15.47
2019-05-02T14:25:17.482Z,14.83
2019-05-02T14:27:46.982Z,13.73
2019-05-02T14:30:33.764Z,14.03
2019-05-02T14:32:52.352Z,15.30
2019-05-02T14:35:35.824Z,15.20
2019-05-02T14:38:10.405Z,13.03
2019-05-02T14:40:46.852Z,13.93
2019-05-02T14:43:38.114Z,15.17
2019-05-02T14:46:05.617Z,15.90
2019-05-02T14:48:43.689Z,12.37
2019-05-02T14:51:11.876Z,16.57
2019-05-02T14:53:42.956Z,13.60
2019-05-02T14:56:20.246Z,14.10
2019-05-02T14:58:49.620Z,13.00
2019-05-02T15:01:22.594Z,13.17
2019-05-02T15:03:49.562Z,10.57
2019-05-02T15:06:18.597Z,13.20
2019-05-02T15:08:47.511Z,10.23
2019-05-02T15:11:16.535Z,13.00
2019-05-02T15:13:45.666Z,11.27
2019-05-02T15:16:17.663Z,11.90
2019-05-02T15:18:47.543Z,13.17
2019-05-02T15:21:22.625Z,12.33
2019-05-02T15:23:54.235Z,14.07
2019-05-02T15:26:26.371Z,14.33
2019-05-02T15:28:52.746Z,16.27
2019-05-02T15:31:33.778Z,14.47
2019-05-02T15:34:07.711Z,16.60
2019-05-02T15:36:37.153Z,14.43
2019-05-02T15:41:44.795Z,16.30
2019-05-02T15:44:12.546Z,18.17
2019-05-02T15:46:42.493Z,16.03
2019-05-02T15:49:12.325Z,17.93
2019-05-02T15:51:43.744Z,16.53
2019-05-02T15:54:12.564Z,19.03
2019-05-02T15:57:00.570Z,16.50
2019-05-02T15:59:37.114Z,17.27
2019-05-02T16:02:09.284Z,17.33
2019-05-02T16:04:41.561Z,18.53
2019-05-02T16:07:12.228Z,16.30
2019-05-02T16:09:41.712Z,14.93
2019-05-02T16:12:12.252Z,16.07
2019-05-02T16:14:42.484Z,17.53
2019-05-02T16:17:12.561Z,17.20
2019-05-02T16:19:49.686Z,16.13
2019-05-02T16:22:20.108Z,21.27
2019-05-02T16:24:51.048Z,18.40
2019-05-02T16:27:25.423Z,16.20
2019-05-02T16:29:52.562Z,17.70
2019-05-02T16:32:30.863Z,19.37
2019-05-02T16:35:12.169Z,16.87
2019-05-02T16:37:36.361Z,17.83
2019-05-02T16:40:07.198Z,14.63
2019-05-02T16:42:36.726Z,14.97
2019-05-02T16:45:08.115Z,12.60
2019-05-02T16:47:37.727Z,14.30
2019-05-02T16:50:07.963Z,13.00
2019-05-02T16:52:38.111Z,13.80
2019-05-02T16:55:08.508Z,15.10
2019-05-02T16:57:37.521Z,14.97
2019-05-02T17:00:07.325Z,15.77
2019-05-02T17:02:37.846Z,14.90
2019-05-02T17:05:09.284Z,16.57
2019-05-02T17:07:56.431Z,16.60
2019-05-02T17:10:35.114Z,13.63
2019-05-02T17:13:04.433Z,18.07
2019-05-02T17:15:35.342Z,15.97
2019-05-02T17:18:12.950Z,16.43
2019-05-02T17:20:36.723Z,17.90
2019-05-02T17:23:07.616Z,17.07
2019-05-02T17:25:36.387Z,15.13
2019-05-02T17:28:10.103Z,17.33
2019-05-02T17:30:39.202Z,18.20
2019-05-02T17:33:11.502Z,18.00
2019-05-02T17:35:43.354Z,17.93
2019-05-02T17:38:08.506Z,14.77
2019-05-02T17:40:37.494Z,16.73
2019-05-02T17:43:07.032Z,18.73
2019-05-02T17:45:38.592Z,15.70
2019-05-02T17:48:10.304Z,18.40
2019-05-02T17:51:15.201Z,16.47
2019-05-02T17:53:49.577Z,15.07
2019-05-02T17:56:20.459Z,15.70
2019-05-02T17:58:53.264Z,16.43
2019-05-02T18:01:21.775Z,14.47
2019-05-02T18:03:52.052Z,14.47
2019-05-02T18:06:32.688Z,14.30
2019-05-02T18:08:55.276Z,15.43
2019-05-02T18:11:23.010Z,14.27
2019-05-02T18:13:52.080Z,12.77
2019-05-02T18:16:21.750Z,14.50
2019-05-02T18:18:52.120Z,16.07
2019-05-02T18:21:25.480Z,14.67
2019-05-02T18:23:52.629Z,12.67
2019-05-02T18:26:22.220Z,15.60
2019-05-02T18:28:52.661Z,13.93
2019-05-02T18:31:21.983Z,15.67
2019-05-02T18:33:52.116Z,13.30
2019-05-02T18:36:23.682Z,14.63
2019-05-02T18:39:00.219Z,13.50
2019-05-02T18:41:23.029Z,13.97
2019-05-02T18:43:52.492Z,13.80
2019-05-02T18:46:22.324Z,13.10
2019-05-02T18:48:51.879Z,13.50
2019-05-02T18:51:21.860Z,13.67
2019-05-02T18:53:52.915Z,14.10
2019-05-02T18:56:22.220Z,13.10
2019-05-02T18:58:53.330Z,15.33
2019-05-02T19:01:22.262Z,14.37
2019-05-02T19:03:52.586Z,13.23
2019-05-02T19:06:22.456Z,12.53
2019-05-02T19:08:52.830Z,13.57
2019-05-02T19:11:22.252Z,14.63
2019-05-02T19:13:52.724Z,13.83
2019-05-02T19:16:27.255Z,16.30
2019-05-02T19:18:54.286Z,13.60
2019-05-02T19:21:26.524Z,15.03
2019-05-02T19:23:54.959Z,13.67
2019-05-02T19:26:23.995Z,14.13
2019-05-02T19:29:02.468Z,13.77
2019-05-02T19:31:52.504Z,14.40
2019-05-02T19:34:26.653Z,14.23
2019-05-02T19:36:53.093Z,14.20
2019-05-02T19:39:24.338Z,15.13
2019-05-02T19:41:53.108Z,14.33
2019-05-02T19:44:29.200Z,15.00
2019-05-02T19:46:52.975Z,13.73
2019-05-02T19:49:23.987Z,13.50
2019-05-02T19:51:56.377Z,12.43
2019-05-02T19:54:23.796Z,14.40
2019-05-02T19:56:52.843Z,14.93
2019-05-02T19:59:26.342Z,14.40
2019-05-02T20:01:56.996Z,14.60
2019-05-02T20:04:23.618Z,14.37
2019-05-02T20:06:52.920Z,14.67
2019-05-02T20:09:21.972Z,14.87
2019-05-02T20:11:52.085Z,13.67
2019-05-02T20:14:21.838Z,13.53
2019-05-02T20:16:53.908Z,15.00
2019-05-02T20:19:26.869Z,15.67
2019-05-02T20:22:02.808Z,13.50
2019-05-02T20:24:55.452Z,12.97
2019-05-02T20:27:22.435Z,14.20
2019-05-02T20:29:52.146Z,14.23
2019-05-02T20:32:22.067Z,15.03
2019-05-02T20:34:51.305Z,14.70
2019-05-02T20:37:22.121Z,13.60
2019-05-02T20:39:51.395Z,14.17
2019-05-02T20:42:20.477Z,13.80
2019-05-02T20:44:49.524Z,14.97
2019-05-02T20:47:23.267Z,13.37
2019-05-02T20:49:52.440Z,13.93
2019-05-02T20:52:21.870Z,14.17
2019-05-02T20:54:52.368Z,16.20
2019-05-02T20:57:21.706Z,13.93
2019-05-02T20:59:52.595Z,13.23
2019-05-02T21:02:21.598Z,14.83
2019-05-02T21:04:56.562Z,15.87
2019-05-02T21:07:48.041Z,15.03
2019-05-02T21:10:37.975Z,13.37
2019-05-02T21:13:07.102Z,14.67
2019-05-02T21:15:36.187Z,13.37
2019-05-02T21:18:05.199Z,10.60
2019-05-02T21:20:34.299Z,11.23
2019-05-02T21:23:03.403Z,12.67
2019-05-02T21:25:32.647Z,11.57
2019-05-02T21:28:02.823Z,13.80
2019-05-02T21:30:32.348Z,15.23
2019-05-02T21:33:02.803Z,13.50
2019-05-02T21:35:32.059Z,12.47
2019-05-02T21:38:01.096Z,12.00
2019-05-02T21:40:30.099Z,11.87
2019-05-02T21:42:59.149Z,13.00
2019-05-02T21:45:28.492Z,14.00
2019-05-02T21:47:57.442Z,12.17
2019-05-02T21:50:49.685Z,12.07
2019-05-02T21:53:27.595Z,10.67
2019-05-02T21:56:07.932Z,10.33
2019-05-02T21:58:36.882Z,9.00
2019-05-02T22:01:12.908Z,9.07
2019-05-02T22:03:42.388Z,9.30
2019-05-02T22:06:12.260Z,7.90
2019-05-02T22:08:41.816Z,9.50
2019-05-02T22:11:12.214Z,8.07
2019-05-02T22:13:42.321Z,8.63
2019-05-02T22:16:12.958Z,8.77
2019-05-02T22:18:42.775Z,8.07
2019-05-02T22:21:12.324Z,9.13
2019-05-02T22:23:42.595Z,7.27
2019-05-02T22:26:12.798Z,8.30
2019-05-02T22:28:41.959Z,8.40
2019-05-02T22:31:12.342Z,7.87
2019-05-02T22:33:44.308Z,8.17
2019-05-02T22:36:12.417Z,5.67
2019-05-02T22:38:50.111Z,7.60
2019-05-02T22:41:19.056Z,5.37
2019-05-02T22:43:47.948Z,8.10
2019-05-02T22:46:35.888Z,6.77
2019-05-02T22:49:05.051Z,6.33
2019-05-02T22:51:34.040Z,7.10
2019-05-02T22:54:03.054Z,7.57
2019-05-02T22:56:31.994Z,7.10
2019-05-02T22:59:02.198Z,7.00
2019-05-02T23:01:32.379Z,6.43
2019-05-02T23:04:01.917Z,7.72
2019-05-02T23:06:31.044Z,6.80
2019-05-02T23:09:01.966Z,6.33
2019-05-02T23:11:32.987Z,6.10
2019-05-02T23:14:01.908Z,7.37
2019-05-02T23:16:32.244Z,8.03
2019-05-02T23:19:02.756Z,7.40
2019-05-02T23:21:32.675Z,5.40
2019-05-02T23:24:04.239Z,5.33
2019-05-02T23:26:44.300Z,6.47
2019-05-02T23:29:14.038Z,4.45
2019-05-02T23:31:42.972Z,7.47
2019-05-02T23:34:11.979Z,4.90
2019-05-02T23:36:41.623Z,4.93
2019-05-02T23:39:12.492Z,6.05
2019-05-02T23:41:42.164Z,4.73
2019-05-02T23:44:12.275Z,6.50
2019-05-02T23:46:42.399Z,5.50
2019-05-02T23:49:12.699Z,4.87
2019-05-02T23:51:42.728Z,6.70
2019-05-02T23:54:12.883Z,5.30
2019-05-02T23:56:42.971Z,5.80
2019-05-02T23:59:12.682Z,6.72
